Terminal Aerodrome Forecast
Issued by NWS Tulsa, OK

Home | Current Version | Previous Version | Text Only | Print | Product List | Glossary On
Versions: 1 2 3 4 5 6 7 8 9 10 11 12 13
979
FTUS44 KTSA 231720
TAFFSM
TAF
KFSM 231720Z 2318/2418 27008KT P6SM SCT060
     FM240200 09004KT P6SM SKC
     FM241500 27007KT P6SM SKC=

USA.gov is the U.S. government's official web portal to all federal, state and local government web resources and services.